sensor_id;sensor_type;location;lat;lon;timestamp;pressure;altitude;pressure_sealevel;temperature;humidity
21100;BME280;10708;50.824;4.408;2022-08-11T00:00:01;101118.63;;;21.79;100.00
21100;BME280;10708;50.824;4.408;2022-08-11T00:05:10;101115.44;;;21.73;100.00
21100;BME280;10708;50.824;4.408;2022-08-11T00:10:14;101117.59;;;21.68;100.00
21100;BME280;10708;50.824;4.408;2022-08-11T00:15:18;101119.88;;;21.62;100.00
21100;BME280;10708;50.824;4.408;2022-08-11T00:20:29;101115.81;;;21.56;100.00
21100;BME280;10708;50.824;4.408;2022-08-11T00:25:37;101114.66;;;21.48;100.00
21100;BME280;10708;50.824;4.408;2022-08-11T00:30:40;101109.00;;;21.40;100.00
21100;BME280;10708;50.824;4.408;2022-08-11T00:35:44;101108.69;;;21.31;100.00
21100;BME280;10708;50.824;4.408;2022-08-11T00:40:52;101121.69;;;21.25;100.00
21100;BME280;10708;50.824;4.408;2022-08-11T00:46:11;101115.03;;;21.18;100.00
21100;BME280;10708;50.824;4.408;2022-08-11T00:51:24;101119.84;;;21.13;100.00
21100;BME280;10708;50.824;4.408;2022-08-11T00:57:15;101110.63;;;21.04;100.00
21100;BME280;10708;50.824;4.408;2022-08-11T01:02:40;101111.91;;;20.98;100.00
21100;BME280;10708;50.824;4.408;2022-08-11T01:13:51;101119.72;;;20.89;100.00
21100;BME280;10708;50.824;4.408;2022-08-11T01:19:32;101114.81;;;20.83;100.00
21100;BME280;10708;50.824;4.408;2022-08-11T01:30:48;101130.88;;;20.70;100.00
21100;BME280;10708;50.824;4.408;2022-08-11T01:36:36;101135.69;;;20.65;100.00
21100;BME280;10708;50.824;4.408;2022-08-11T01:41:53;101130.13;;;20.55;100.00
21100;BME280;10708;50.824;4.408;2022-08-11T01:47:25;101122.81;;;20.45;100.00
21100;BME280;10708;50.824;4.408;2022-08-11T01:53:07;101133.28;;;20.35;100.00
21100;BME280;10708;50.824;4.408;2022-08-11T01:58:16;101129.47;;;20.25;100.00
21100;BME280;10708;50.824;4.408;2022-08-11T02:03:26;101126.56;;;20.15;100.00
21100;BME280;10708;50.824;4.408;2022-08-11T02:08:47;101120.13;;;20.05;100.00
21100;BME280;10708;50.824;4.408;2022-08-11T02:13:59;101129.56;;;19.97;100.00
21100;BME280;10708;50.824;4.408;2022-08-11T02:19:11;101122.94;;;19.89;100.00
21100;BME280;10708;50.824;4.408;2022-08-11T02:24:43;101124.31;;;19.82;100.00
21100;BME280;10708;50.824;4.408;2022-08-11T02:30:00;101112.09;;;19.78;100.00
21100;BME280;10708;50.824;4.408;2022-08-11T02:35:14;101112.84;;;19.80;100.00
21100;BME280;10708;50.824;4.408;2022-08-11T02:40:34;101116.03;;;19.73;100.00
21100;BME280;10708;50.824;4.408;2022-08-11T02:45:53;101117.25;;;19.67;100.00
21100;BME280;10708;50.824;4.408;2022-08-11T02:51:08;101112.31;;;19.61;100.00
21100;BME280;10708;50.824;4.408;2022-08-11T02:56:24;101107.69;;;19.50;100.00
21100;BME280;10708;50.824;4.408;2022-08-11T03:01:40;101114.44;;;19.42;100.00
21100;BME280;10708;50.824;4.408;2022-08-11T03:06:49;101106.81;;;19.36;100.00
21100;BME280;10708;50.824;4.408;2022-08-11T03:12:01;101104.72;;;19.27;100.00
21100;BME280;10708;50.824;4.408;2022-08-11T03:17:29;101108.81;;;19.18;100.00
21100;BME280;10708;50.824;4.408;2022-08-11T03:22:35;101105.88;;;19.08;100.00
21100;BME280;10708;50.824;4.408;2022-08-11T03:27:47;101111.69;;;19.01;100.00
21100;BME280;10708;50.824;4.408;2022-08-11T03:33:04;101111.22;;;18.94;100.00
21100;BME280;10708;50.824;4.408;2022-08-11T03:38:26;101107.97;;;18.89;100.00
21100;BME280;10708;50.824;4.408;2022-08-11T03:43:58;101106.63;;;18.82;100.00
21100;BME280;10708;50.824;4.408;2022-08-11T03:49:11;101121.09;;;18.78;100.00
21100;BME280;10708;50.824;4.408;2022-08-11T03:54:28;101114.44;;;18.71;100.00
21100;BME280;10708;50.824;4.408;2022-08-11T04:00:04;101121.09;;;18.64;100.00
21100;BME280;10708;50.824;4.408;2022-08-11T04:05:33;101117.94;;;18.57;100.00
21100;BME280;10708;50.824;4.408;2022-08-11T04:11:16;101110.28;;;18.51;100.00
21100;BME280;10708;50.824;4.408;2022-08-11T04:16:40;101121.03;;;18.50;100.00
21100;BME280;10708;50.824;4.408;2022-08-11T04:27:30;101105.22;;;18.47;100.00
21100;BME280;10708;50.824;4.408;2022-08-11T04:33:19;101110.44;;;18.48;100.00
21100;BME280;10708;50.824;4.408;2022-08-11T04:38:57;101104.47;;;18.44;100.00
21100;BME280;10708;50.824;4.408;2022-08-11T04:55:36;101120.31;;;18.32;100.00
21100;BME280;10708;50.824;4.408;2022-08-11T05:01:17;101121.34;;;18.29;100.00
21100;BME280;10708;50.824;4.408;2022-08-11T05:07:03;101120.88;;;18.23;100.00
21100;BME280;10708;50.824;4.408;2022-08-11T05:12:27;101127.16;;;18.22;100.00
21100;BME280;10708;50.824;4.408;2022-08-11T05:17:37;101126.19;;;18.23;100.00
21100;BME280;10708;50.824;4.408;2022-08-11T05:23:03;101125.25;;;18.24;100.00
21100;BME280;10708;50.824;4.408;2022-08-11T05:28:30;101130.50;;;18.25;100.00
21100;BME280;10708;50.824;4.408;2022-08-11T05:33:56;101132.97;;;18.28;100.00
21100;BME280;10708;50.824;4.408;2022-08-11T05:39:21;101131.75;;;18.34;100.00
21100;BME280;10708;50.824;4.408;2022-08-11T05:44:44;101138.91;;;18.63;100.00
21100;BME280;10708;50.824;4.408;2022-08-11T05:50:08;101125.72;;;18.76;100.00
21100;BME280;10708;50.824;4.408;2022-08-11T05:55:32;101126.75;;;18.88;100.00
21100;BME280;10708;50.824;4.408;2022-08-11T06:00:58;101134.28;;;19.09;100.00
21100;BME280;10708;50.824;4.408;2022-08-11T06:06:07;101133.34;;;19.25;100.00
21100;BME280;10708;50.824;4.408;2022-08-11T06:11:12;101121.69;;;19.40;100.00
21100;BME280;10708;50.824;4.408;2022-08-11T06:16:21;101123.59;;;19.52;100.00
21100;BME280;10708;50.824;4.408;2022-08-11T06:21:24;101115.56;;;19.66;100.00
21100;BME280;10708;50.824;4.408;2022-08-11T06:26:29;101126.41;;;19.77;100.00
21100;BME280;10708;50.824;4.408;2022-08-11T06:31:33;101129.81;;;19.94;100.00
21100;BME280;10708;50.824;4.408;2022-08-11T06:36:40;101129.53;;;20.11;100.00
21100;BME280;10708;50.824;4.408;2022-08-11T06:41:53;101128.09;;;20.32;100.00
21100;BME280;10708;50.824;4.408;2022-08-11T06:47:04;101131.28;;;20.51;100.00
21100;BME280;10708;50.824;4.408;2022-08-11T06:52:10;101134.41;;;20.71;100.00
21100;BME280;10708;50.824;4.408;2022-08-11T06:57:18;101134.06;;;20.88;100.00
21100;BME280;10708;50.824;4.408;2022-08-11T07:02:45;101128.09;;;21.10;100.00
21100;BME280;10708;50.824;4.408;2022-08-11T07:13:44;101127.59;;;22.03;100.00
21100;BME280;10708;50.824;4.408;2022-08-11T07:19:06;101125.53;;;23.77;100.00
21100;BME280;10708;50.824;4.408;2022-08-11T07:24:29;101120.72;;;25.67;100.00
21100;BME280;10708;50.824;4.408;2022-08-11T07:29:54;101119.03;;;27.29;100.00
21100;BME280;10708;50.824;4.408;2022-08-11T07:35:02;101113.53;;;28.82;100.00
21100;BME280;10708;50.824;4.408;2022-08-11T07:40:10;101120.59;;;29.77;100.00
21100;BME280;10708;50.824;4.408;2022-08-11T07:45:14;101116.47;;;30.15;100.00
21100;BME280;10708;50.824;4.408;2022-08-11T07:50:34;101121.59;;;30.74;100.00
21100;BME280;10708;50.824;4.408;2022-08-11T07:55:55;101111.41;;;31.32;100.00
21100;BME280;10708;50.824;4.408;2022-08-11T08:01:00;101099.25;;;31.50;100.00
21100;BME280;10708;50.824;4.408;2022-08-11T08:06:20;101114.19;;;31.15;92.07
21100;BME280;10708;50.824;4.408;2022-08-11T08:11:43;101114.72;;;30.95;91.02
21100;BME280;10708;50.824;4.408;2022-08-11T08:17:06;101113.69;;;31.12;80.43
21100;BME280;10708;50.824;4.408;2022-08-11T08:22:27;101113.66;;;31.20;94.19
21100;BME280;10708;50.824;4.408;2022-08-11T08:27:30;101113.69;;;31.12;86.37
21100;BME280;10708;50.824;4.408;2022-08-11T08:32:37;101114.03;;;31.01;72.60
21100;BME280;10708;50.824;4.408;2022-08-11T08:37:40;101113.72;;;31.51;89.13
21100;BME280;10708;50.824;4.408;2022-08-11T08:42:47;101116.28;;;31.83;88.65
21100;BME280;10708;50.824;4.408;2022-08-11T08:47:58;101114.88;;;31.87;86.10
21100;BME280;10708;50.824;4.408;2022-08-11T08:53:03;101116.94;;;31.46;71.95
21100;BME280;10708;50.824;4.408;2022-08-11T08:58:06;101109.34;;;31.42;62.03
21100;BME280;10708;50.824;4.408;2022-08-11T09:03:12;101112.53;;;31.45;55.00
21100;BME280;10708;50.824;4.408;2022-08-11T09:08:16;101117.19;;;31.29;69.15
21100;BME280;10708;50.824;4.408;2022-08-11T09:13:20;101104.81;;;31.57;56.12
21100;BME280;10708;50.824;4.408;2022-08-11T09:18:23;101105.59;;;31.43;53.93
21100;BME280;10708;50.824;4.408;2022-08-11T09:23:26;101095.41;;;31.99;62.33
21100;BME280;10708;50.824;4.408;2022-08-11T09:28:46;101091.47;;;31.78;51.40
21100;BME280;10708;50.824;4.408;2022-08-11T09:33:53;101083.94;;;31.49;54.66
21100;BME280;10708;50.824;4.408;2022-08-11T09:38:56;101087.69;;;31.48;52.67
21100;BME280;10708;50.824;4.408;2022-08-11T09:44:17;101080.97;;;31.67;52.44
21100;BME280;10708;50.824;4.408;2022-08-11T09:49:40;101077.16;;;31.45;56.08
21100;BME280;10708;50.824;4.408;2022-08-11T09:54:46;101074.69;;;31.28;48.28
21100;BME280;10708;50.824;4.408;2022-08-11T09:59:50;101068.41;;;31.58;53.31
21100;BME280;10708;50.824;4.408;2022-08-11T10:04:56;101055.88;;;31.49;46.36
21100;BME280;10708;50.824;4.408;2022-08-11T10:10:20;101060.25;;;31.58;47.56
21100;BME280;10708;50.824;4.408;2022-08-11T10:15:24;101058.03;;;31.62;54.04
21100;BME280;10708;50.824;4.408;2022-08-11T10:20:39;101048.94;;;32.00;49.97
21100;BME280;10708;50.824;4.408;2022-08-11T10:25:43;101038.78;;;31.94;49.67
21100;BME280;10708;50.824;4.408;2022-08-11T10:31:04;101037.97;;;31.85;44.86
21100;BME280;10708;50.824;4.408;2022-08-11T10:36:34;101035.53;;;32.13;47.40
21100;BME280;10708;50.824;4.408;2022-08-11T10:41:43;101030.56;;;32.40;46.66
21100;BME280;10708;50.824;4.408;2022-08-11T10:47:04;101029.75;;;32.54;48.96
21100;BME280;10708;50.824;4.408;2022-08-11T10:52:26;101024.19;;;32.62;44.08
21100;BME280;10708;50.824;4.408;2022-08-11T10:57:46;101021.47;;;32.62;47.83
21100;BME280;10708;50.824;4.408;2022-08-11T11:03:06;101025.19;;;32.09;45.78
21100;BME280;10708;50.824;4.408;2022-08-11T11:08:13;101012.06;;;31.67;44.39
21100;BME280;10708;50.824;4.408;2022-08-11T11:13:31;101017.03;;;30.93;44.47
21100;BME280;10708;50.824;4.408;2022-08-11T11:18:52;101006.59;;;30.41;40.24
21100;BME280;10708;50.824;4.408;2022-08-11T11:24:06;101015.13;;;30.22;41.64
21100;BME280;10708;50.824;4.408;2022-08-11T11:29:29;101013.25;;;30.06;43.52
21100;BME280;10708;50.824;4.408;2022-08-11T11:40:21;101008.47;;;29.84;44.08
21100;BME280;10708;50.824;4.408;2022-08-11T11:45:24;101006.94;;;29.82;45.28
21100;BME280;10708;50.824;4.408;2022-08-11T11:50:28;100994.53;;;29.87;45.46
21100;BME280;10708;50.824;4.408;2022-08-11T11:55:33;101000.66;;;29.81;42.61
21100;BME280;10708;50.824;4.408;2022-08-11T12:00:36;100986.72;;;29.76;44.22
21100;BME280;10708;50.824;4.408;2022-08-11T12:05:56;100986.25;;;29.81;43.68
21100;BME280;10708;50.824;4.408;2022-08-11T12:11:02;100981.00;;;29.95;44.20
21100;BME280;10708;50.824;4.408;2022-08-11T12:16:23;100980.63;;;29.90;42.70
21100;BME280;10708;50.824;4.408;2022-08-11T12:21:26;100985.06;;;29.99;43.99
21100;BME280;10708;50.824;4.408;2022-08-11T12:26:32;100961.81;;;30.05;45.08
21100;BME280;10708;50.824;4.408;2022-08-11T12:31:54;100975.91;;;30.08;42.13
21100;BME280;10708;50.824;4.408;2022-08-11T12:37:00;100954.50;;;30.05;41.38
21100;BME280;10708;50.824;4.408;2022-08-11T12:42:07;100952.31;;;30.09;45.52
21100;BME280;10708;50.824;4.408;2022-08-11T12:47:29;100949.94;;;30.22;43.60
21100;BME280;10708;50.824;4.408;2022-08-11T12:52:54;100936.31;;;30.30;44.04
21100;BME280;10708;50.824;4.408;2022-08-11T12:58:00;100940.53;;;30.41;45.88
21100;BME280;10708;50.824;4.408;2022-08-11T13:03:19;100950.69;;;30.47;45.17
21100;BME280;10708;50.824;4.408;2022-08-11T13:08:39;100939.69;;;30.40;42.11
21100;BME280;10708;50.824;4.408;2022-08-11T13:13:45;100940.41;;;30.34;42.24
21100;BME280;10708;50.824;4.408;2022-08-11T13:18:48;100926.81;;;30.34;42.65
21100;BME280;10708;50.824;4.408;2022-08-11T13:23:52;100932.69;;;30.46;41.38
21100;BME280;10708;50.824;4.408;2022-08-11T13:28:57;100912.66;;;30.47;41.88
21100;BME280;10708;50.824;4.408;2022-08-11T13:34:00;100915.88;;;30.59;43.53
21100;BME280;10708;50.824;4.408;2022-08-11T13:39:03;100908.00;;;30.72;45.72
21100;BME280;10708;50.824;4.408;2022-08-11T13:44:09;100905.41;;;30.78;43.16
21100;BME280;10708;50.824;4.408;2022-08-11T13:49:15;100902.03;;;30.76;39.43
21100;BME280;10708;50.824;4.408;2022-08-11T13:54:20;100896.97;;;30.73;38.67
21100;BME280;10708;50.824;4.408;2022-08-11T13:59:25;100904.44;;;30.71;39.52
21100;BME280;10708;50.824;4.408;2022-08-11T14:04:31;100893.75;;;30.70;37.66
21100;BME280;10708;50.824;4.408;2022-08-11T14:09:36;100892.16;;;30.75;40.31
21100;BME280;10708;50.824;4.408;2022-08-11T14:14:43;100885.13;;;30.89;42.27
21100;BME280;10708;50.824;4.408;2022-08-11T14:19:50;100881.50;;;30.97;40.51
21100;BME280;10708;50.824;4.408;2022-08-11T14:24:54;100879.59;;;31.05;41.38
21100;BME280;10708;50.824;4.408;2022-08-11T14:29:59;100873.81;;;31.08;40.01
21100;BME280;10708;50.824;4.408;2022-08-11T14:35:03;100864.53;;;30.95;40.54
21100;BME280;10708;50.824;4.408;2022-08-11T14:40:07;100847.84;;;30.98;41.51
21100;BME280;10708;50.824;4.408;2022-08-11T14:45:32;100855.31;;;31.04;41.77
21100;BME280;10708;50.824;4.408;2022-08-11T14:50:52;100850.34;;;31.07;37.65
21100;BME280;10708;50.824;4.408;2022-08-11T14:55:54;100853.22;;;31.14;39.07
21100;BME280;10708;50.824;4.408;2022-08-11T15:01:16;100831.94;;;31.17;36.25
21100;BME280;10708;50.824;4.408;2022-08-11T15:06:36;100835.75;;;31.08;34.94
21100;BME280;10708;50.824;4.408;2022-08-11T15:11:39;100830.13;;;31.10;36.25
21100;BME280;10708;50.824;4.408;2022-08-11T15:17:01;100826.31;;;31.19;37.35
21100;BME280;10708;50.824;4.408;2022-08-11T15:22:09;100812.09;;;31.32;39.40
21100;BME280;10708;50.824;4.408;2022-08-11T15:27:31;100815.28;;;31.35;35.93
21100;BME280;10708;50.824;4.408;2022-08-11T15:32:54;100811.78;;;31.27;35.28
21100;BME280;10708;50.824;4.408;2022-08-11T15:38:18;100810.06;;;31.34;37.77
21100;BME280;10708;50.824;4.408;2022-08-11T15:43:24;100816.34;;;31.34;36.59
21100;BME280;10708;50.824;4.408;2022-08-11T15:48:57;100803.75;;;31.33;36.81
21100;BME280;10708;50.824;4.408;2022-08-11T15:54:05;100805.75;;;31.39;36.37
21100;BME280;10708;50.824;4.408;2022-08-11T15:59:11;100787.97;;;31.29;36.22
21100;BME280;10708;50.824;4.408;2022-08-11T16:04:35;100781.50;;;31.30;35.64
21100;BME280;10708;50.824;4.408;2022-08-11T16:09:40;100791.38;;;31.31;33.16
21100;BME280;10708;50.824;4.408;2022-08-11T16:14:49;100789.00;;;31.28;33.73
21100;BME280;10708;50.824;4.408;2022-08-11T16:20:12;100784.22;;;31.30;33.54
21100;BME280;10708;50.824;4.408;2022-08-11T16:25:19;100776.44;;;31.27;33.69
21100;BME280;10708;50.824;4.408;2022-08-11T16:30:24;100776.06;;;31.30;32.38
21100;BME280;10708;50.824;4.408;2022-08-11T16:35:31;100775.53;;;31.34;32.52
21100;BME280;10708;50.824;4.408;2022-08-11T16:40:53;100772.69;;;31.28;32.25
21100;BME280;10708;50.824;4.408;2022-08-11T16:45:56;100777.28;;;31.27;31.75
21100;BME280;10708;50.824;4.408;2022-08-11T16:51:33;100774.63;;;31.19;31.45
21100;BME280;10708;50.824;4.408;2022-08-11T16:56:39;100770.22;;;31.18;31.41
21100;BME280;10708;50.824;4.408;2022-08-11T17:01:46;100774.34;;;31.14;30.67
21100;BME280;10708;50.824;4.408;2022-08-11T17:06:51;100763.66;;;31.12;32.47
21100;BME280;10708;50.824;4.408;2022-08-11T17:12:12;100766.59;;;31.03;31.33
21100;BME280;10708;50.824;4.408;2022-08-11T17:17:36;100764.91;;;31.02;31.09
21100;BME280;10708;50.824;4.408;2022-08-11T17:22:41;100765.44;;;30.97;31.47
21100;BME280;10708;50.824;4.408;2022-08-11T17:28:02;100762.09;;;30.87;31.84
21100;BME280;10708;50.824;4.408;2022-08-11T17:33:04;100764.66;;;30.89;32.52
21100;BME280;10708;50.824;4.408;2022-08-11T17:38:26;100766.34;;;30.90;32.36
21100;BME280;10708;50.824;4.408;2022-08-11T17:43:30;100763.81;;;30.88;33.33
21100;BME280;10708;50.824;4.408;2022-08-11T17:48:50;100762.41;;;30.92;33.31
21100;BME280;10708;50.824;4.408;2022-08-11T17:53:54;100771.25;;;30.94;34.03
21100;BME280;10708;50.824;4.408;2022-08-11T17:59:14;100773.75;;;30.96;34.83
21100;BME280;10708;50.824;4.408;2022-08-11T18:04:35;100770.81;;;30.83;33.84
21100;BME280;10708;50.824;4.408;2022-08-11T18:09:39;100770.03;;;30.74;34.44
21100;BME280;10708;50.824;4.408;2022-08-11T18:14:59;100775.88;;;30.63;34.70
21100;BME280;10708;50.824;4.408;2022-08-11T18:20:19;100782.72;;;30.51;35.04
21100;BME280;10708;50.824;4.408;2022-08-11T18:25:43;100779.72;;;30.37;35.27
21100;BME280;10708;50.824;4.408;2022-08-11T18:31:04;100786.59;;;30.17;35.18
21100;BME280;10708;50.824;4.408;2022-08-11T18:36:30;100791.09;;;29.94;36.43
21100;BME280;10708;50.824;4.408;2022-08-11T18:41:52;100784.38;;;29.65;36.30
21100;BME280;10708;50.824;4.408;2022-08-11T18:47:13;100802.41;;;29.42;36.78
21100;BME280;10708;50.824;4.408;2022-08-11T18:52:35;100798.47;;;29.20;37.48
21100;BME280;10708;50.824;4.408;2022-08-11T18:57:59;100807.25;;;28.98;38.30
21100;BME280;10708;50.824;4.408;2022-08-11T19:03:21;100814.13;;;28.76;39.70
21100;BME280;10708;50.824;4.408;2022-08-11T19:08:50;100814.59;;;28.55;41.12
21100;BME280;10708;50.824;4.408;2022-08-11T19:14:13;100811.84;;;28.39;42.12
21100;BME280;10708;50.824;4.408;2022-08-11T19:19:36;100815.50;;;28.22;43.28
21100;BME280;10708;50.824;4.408;2022-08-11T19:24:58;100818.28;;;28.04;44.42
21100;BME280;10708;50.824;4.408;2022-08-11T19:30:20;100824.59;;;27.87;45.06
21100;BME280;10708;50.824;4.408;2022-08-11T19:35:41;100825.03;;;27.74;47.05
21100;BME280;10708;50.824;4.408;2022-08-11T19:41:01;100828.47;;;27.59;47.92
21100;BME280;10708;50.824;4.408;2022-08-11T19:46:23;100833.56;;;27.44;49.12
21100;BME280;10708;50.824;4.408;2022-08-11T19:51:44;100838.69;;;27.29;50.55
21100;BME280;10708;50.824;4.408;2022-08-11T19:57:05;100842.09;;;27.13;52.00
21100;BME280;10708;50.824;4.408;2022-08-11T20:02:27;100840.91;;;26.98;52.91
21100;BME280;10708;50.824;4.408;2022-08-11T20:07:47;100838.56;;;26.86;55.02
21100;BME280;10708;50.824;4.408;2022-08-11T20:13:08;100838.81;;;26.74;56.01
21100;BME280;10708;50.824;4.408;2022-08-11T20:18:31;100851.66;;;26.63;56.77
21100;BME280;10708;50.824;4.408;2022-08-11T20:23:52;100850.31;;;26.49;54.75
21100;BME280;10708;50.824;4.408;2022-08-11T20:29:13;100850.66;;;26.36;56.58
21100;BME280;10708;50.824;4.408;2022-08-11T20:34:35;100850.13;;;26.23;59.58
21100;BME280;10708;50.824;4.408;2022-08-11T20:39:56;100847.75;;;26.10;58.47
21100;BME280;10708;50.824;4.408;2022-08-11T20:45:21;100845.53;;;25.96;57.46
21100;BME280;10708;50.824;4.408;2022-08-11T20:50:44;100850.41;;;25.83;61.32
21100;BME280;10708;50.824;4.408;2022-08-11T20:56:05;100853.41;;;25.70;64.18
21100;BME280;10708;50.824;4.408;2022-08-11T21:01:26;100854.44;;;25.60;62.55
21100;BME280;10708;50.824;4.408;2022-08-11T21:06:49;100861.50;;;25.51;68.53
21100;BME280;10708;50.824;4.408;2022-08-11T21:12:11;100861.38;;;25.43;67.99
21100;BME280;10708;50.824;4.408;2022-08-11T21:17:34;100871.47;;;25.31;70.46
21100;BME280;10708;50.824;4.408;2022-08-11T21:22:59;100873.44;;;25.20;69.79
21100;BME280;10708;50.824;4.408;2022-08-11T21:28:21;100869.88;;;25.10;72.95
21100;BME280;10708;50.824;4.408;2022-08-11T21:33:40;100869.03;;;24.99;72.69
21100;BME280;10708;50.824;4.408;2022-08-11T21:39:03;100862.59;;;24.91;71.75
21100;BME280;10708;50.824;4.408;2022-08-11T21:44:25;100867.13;;;24.81;68.85
21100;BME280;10708;50.824;4.408;2022-08-11T21:49:46;100862.69;;;24.70;69.19
21100;BME280;10708;50.824;4.408;2022-08-11T21:55:08;100856.31;;;24.61;75.22
21100;BME280;10708;50.824;4.408;2022-08-11T22:00:29;100861.78;;;24.50;68.92
21100;BME280;10708;50.824;4.408;2022-08-11T22:05:49;100856.78;;;24.36;66.06
21100;BME280;10708;50.824;4.408;2022-08-11T22:11:11;100854.34;;;24.23;67.13
21100;BME280;10708;50.824;4.408;2022-08-11T22:16:32;100855.25;;;24.13;67.11
21100;BME280;10708;50.824;4.408;2022-08-11T22:21:53;100854.50;;;24.01;74.48
21100;BME280;10708;50.824;4.408;2022-08-11T22:27:15;100846.25;;;23.93;71.87
21100;BME280;10708;50.824;4.408;2022-08-11T22:32:36;100851.44;;;23.85;76.50
21100;BME280;10708;50.824;4.408;2022-08-11T22:37:57;100840.63;;;23.75;79.13
21100;BME280;10708;50.824;4.408;2022-08-11T22:43:19;100847.63;;;23.67;83.44
21100;BME280;10708;50.824;4.408;2022-08-11T22:48:40;100843.03;;;23.58;76.81
21100;BME280;10708;50.824;4.408;2022-08-11T22:54:02;100839.41;;;23.47;81.24
21100;BME280;10708;50.824;4.408;2022-08-11T22:59:23;100838.47;;;23.37;80.01
21100;BME280;10708;50.824;4.408;2022-08-11T23:04:44;100842.06;;;23.27;77.84
21100;BME280;10708;50.824;4.408;2022-08-11T23:10:05;100840.28;;;23.16;78.02
21100;BME280;10708;50.824;4.408;2022-08-11T23:15:28;100841.06;;;23.07;78.85
21100;BME280;10708;50.824;4.408;2022-08-11T23:20:48;100837.31;;;22.98;76.20
21100;BME280;10708;50.824;4.408;2022-08-11T23:26:08;100842.59;;;22.89;75.59
21100;BME280;10708;50.824;4.408;2022-08-11T23:31:32;100840.53;;;22.81;76.52
21100;BME280;10708;50.824;4.408;2022-08-11T23:36:53;100838.38;;;22.75;77.08
21100;BME280;10708;50.824;4.408;2022-08-11T23:42:13;100833.47;;;22.69;75.53
21100;BME280;10708;50.824;4.408;2022-08-11T23:47:35;100827.50;;;22.65;76.60
21100;BME280;10708;50.824;4.408;2022-08-11T23:52:56;100833.38;;;22.59;79.37
21100;BME280;10708;50.824;4.408;2022-08-11T23:58:17;100828.63;;;22.52;76.90
